sensor_id;sensor_type;location;lat;lon;timestamp;P1;durP1;ratioP1;P2;durP2;ratioP2
60494;SDS011;46342;49.046;11.920;2022-07-29T05:14:18;1.90;;;1.50;;
60494;SDS011;46342;49.046;11.920;2022-07-29T05:16:44;2.28;;;1.77;;
60494;SDS011;46342;49.046;11.920;2022-07-29T05:19:10;1.98;;;1.75;;
60494;SDS011;46342;49.046;11.920;2022-07-29T05:21:36;1.90;;;1.70;;
60494;SDS011;46342;49.046;11.920;2022-07-29T05:24:01;1.83;;;1.70;;
60494;SDS011;46342;49.046;11.920;2022-07-29T05:26:27;1.80;;;1.67;;
60494;SDS011;46342;49.046;11.920;2022-07-29T05:28:53;4.57;;;2.00;;
60494;SDS011;46342;49.046;11.920;2022-07-29T05:31:19;2.08;;;1.90;;
60494;SDS011;46342;49.046;11.920;2022-07-29T05:33:45;4.30;;;1.70;;
60494;SDS011;46342;49.046;11.920;2022-07-29T05:36:10;1.70;;;1.60;;
60494;SDS011;46342;49.046;11.920;2022-07-29T05:38:36;2.65;;;1.70;;
60494;SDS011;46342;49.046;11.920;2022-07-29T05:41:02;2.78;;;1.95;;
60494;SDS011;46342;49.046;11.920;2022-07-29T05:43:28;1.83;;;1.60;;
60494;SDS011;46342;49.046;11.920;2022-07-29T05:45:54;2.38;;;1.80;;
60494;SDS011;46342;49.046;11.920;2022-07-29T05:48:20;2.78;;;1.77;;
60494;SDS011;46342;49.046;11.920;2022-07-29T05:50:46;1.90;;;1.80;;
60494;SDS011;46342;49.046;11.920;2022-07-29T05:53:11;2.05;;;1.80;;
60494;SDS011;46342;49.046;11.920;2022-07-29T05:55:37;3.80;;;1.70;;
60494;SDS011;46342;49.046;11.920;2022-07-29T05:58:02;1.98;;;1.63;;
60494;SDS011;46342;49.046;11.920;2022-07-29T06:00:28;1.98;;;1.83;;
60494;SDS011;46342;49.046;11.920;2022-07-29T06:02:55;2.00;;;1.80;;
60494;SDS011;46342;49.046;11.920;2022-07-29T06:05:21;3.10;;;1.92;;
60494;SDS011;46342;49.046;11.920;2022-07-29T06:07:47;2.55;;;1.85;;
60494;SDS011;46342;49.046;11.920;2022-07-29T06:10:12;1.90;;;1.80;;
60494;SDS011;46342;49.046;11.920;2022-07-29T06:12:38;3.28;;;1.75;;
60494;SDS011;46342;49.046;11.920;2022-07-29T06:15:04;3.17;;;2.13;;
60494;SDS011;46342;49.046;11.920;2022-07-29T06:17:30;2.13;;;1.92;;
60494;SDS011;46342;49.046;11.920;2022-07-29T06:19:55;2.28;;;1.90;;
60494;SDS011;46342;49.046;11.920;2022-07-29T06:22:21;2.35;;;2.08;;
60494;SDS011;46342;49.046;11.920;2022-07-29T06:24:46;3.08;;;1.90;;
60494;SDS011;46342;49.046;11.920;2022-07-29T06:27:12;4.45;;;2.28;;
60494;SDS011;46342;49.046;11.920;2022-07-29T06:29:38;2.85;;;2.40;;
60494;SDS011;46342;49.046;11.920;2022-07-29T06:32:04;7.10;;;2.65;;
60494;SDS011;46342;49.046;11.920;2022-07-29T06:34:30;4.15;;;2.03;;
60494;SDS011;46342;49.046;11.920;2022-07-29T06:36:55;3.00;;;1.88;;
60494;SDS011;46342;49.046;11.920;2022-07-29T06:39:21;2.15;;;1.75;;
60494;SDS011;46342;49.046;11.920;2022-07-29T06:41:47;2.10;;;1.90;;
60494;SDS011;46342;49.046;11.920;2022-07-29T06:44:16;3.55;;;2.00;;
60494;SDS011;46342;49.046;11.920;2022-07-29T06:46:43;3.08;;;2.08;;
60494;SDS011;46342;49.046;11.920;2022-07-29T06:49:09;1.77;;;1.67;;
60494;SDS011;46342;49.046;11.920;2022-07-29T06:51:34;2.20;;;2.00;;
60494;SDS011;46342;49.046;11.920;2022-07-29T06:54:01;1.92;;;1.80;;
60494;SDS011;46342;49.046;11.920;2022-07-29T06:56:27;4.22;;;2.17;;
60494;SDS011;46342;49.046;11.920;2022-07-29T06:58:53;2.25;;;2.05;;
60494;SDS011;46342;49.046;11.920;2022-07-29T07:01:18;4.07;;;2.17;;
60494;SDS011;46342;49.046;11.920;2022-07-29T07:03:44;2.67;;;1.77;;
60494;SDS011;46342;49.046;11.920;2022-07-29T07:06:10;1.85;;;1.75;;
60494;SDS011;46342;49.046;11.920;2022-07-29T07:08:36;1.85;;;1.67;;
60494;SDS011;46342;49.046;11.920;2022-07-29T07:11:01;2.17;;;1.98;;
60494;SDS011;46342;49.046;11.920;2022-07-29T07:13:45;2.80;;;2.10;;
60494;SDS011;46342;49.046;11.920;2022-07-29T07:16:11;2.83;;;1.60;;
60494;SDS011;46342;49.046;11.920;2022-07-29T07:18:37;3.25;;;2.08;;
60494;SDS011;46342;49.046;11.920;2022-07-29T07:21:02;2.22;;;2.00;;
60494;SDS011;46342;49.046;11.920;2022-07-29T07:23:29;2.13;;;1.67;;
60494;SDS011;46342;49.046;11.920;2022-07-29T07:25:55;2.17;;;1.80;;
60494;SDS011;46342;49.046;11.920;2022-07-29T07:28:21;1.90;;;1.65;;
60494;SDS011;46342;49.046;11.920;2022-07-29T07:30:46;2.22;;;2.00;;
60494;SDS011;46342;49.046;11.920;2022-07-29T07:33:12;2.28;;;1.80;;
60494;SDS011;46342;49.046;11.920;2022-07-29T07:35:39;2.38;;;1.85;;
60494;SDS011;46342;49.046;11.920;2022-07-29T07:38:04;2.38;;;2.17;;
60494;SDS011;46342;49.046;11.920;2022-07-29T07:40:31;2.30;;;2.10;;
60494;SDS011;46342;49.046;11.920;2022-07-29T07:42:56;5.60;;;1.73;;
60494;SDS011;46342;49.046;11.920;2022-07-29T07:45:22;3.40;;;2.05;;
60494;SDS011;46342;49.046;11.920;2022-07-29T07:47:49;4.55;;;2.17;;
60494;SDS011;46342;49.046;11.920;2022-07-29T07:50:14;2.15;;;1.90;;
60494;SDS011;46342;49.046;11.920;2022-07-29T07:52:49;2.75;;;1.90;;
60494;SDS011;46342;49.046;11.920;2022-07-29T07:55:17;4.75;;;1.98;;
60494;SDS011;46342;49.046;11.920;2022-07-29T07:57:43;2.90;;;2.05;;
60494;SDS011;46342;49.046;11.920;2022-07-29T08:00:10;2.40;;;1.90;;
60494;SDS011;46342;49.046;11.920;2022-07-29T08:02:38;3.65;;;1.90;;
60494;SDS011;46342;49.046;11.920;2022-07-29T08:05:04;2.83;;;2.25;;
60494;SDS011;46342;49.046;11.920;2022-07-29T08:07:31;2.83;;;2.45;;
60494;SDS011;46342;49.046;11.920;2022-07-29T08:09:57;2.42;;;2.20;;
60494;SDS011;46342;49.046;11.920;2022-07-29T08:12:22;4.18;;;2.25;;
60494;SDS011;46342;49.046;11.920;2022-07-29T08:14:48;2.72;;;2.30;;
60494;SDS011;46342;49.046;11.920;2022-07-29T08:17:14;2.45;;;2.25;;
60494;SDS011;46342;49.046;11.920;2022-07-29T08:19:39;2.28;;;2.08;;
60494;SDS011;46342;49.046;11.920;2022-07-29T08:22:05;2.80;;;2.28;;
60494;SDS011;46342;49.046;11.920;2022-07-29T08:24:30;2.40;;;2.20;;
60494;SDS011;46342;49.046;11.920;2022-07-29T08:29:34;2.88;;;2.30;;
60494;SDS011;46342;49.046;11.920;2022-07-29T08:32:00;2.53;;;2.30;;
60494;SDS011;46342;49.046;11.920;2022-07-29T08:34:26;2.45;;;2.25;;
60494;SDS011;46342;49.046;11.920;2022-07-29T08:36:53;2.72;;;2.40;;
60494;SDS011;46342;49.046;11.920;2022-07-29T08:39:20;2.60;;;2.40;;
60494;SDS011;46342;49.046;11.920;2022-07-29T08:41:45;2.58;;;2.38;;
60494;SDS011;46342;49.046;11.920;2022-07-29T08:44:12;2.37;;;1.93;;
60494;SDS011;46342;49.046;11.920;2022-07-29T08:46:40;2.45;;;2.25;;
60494;SDS011;46342;49.046;11.920;2022-07-29T08:49:05;2.97;;;2.15;;
60494;SDS011;46342;49.046;11.920;2022-07-29T08:51:32;2.50;;;1.92;;
60494;SDS011;46342;49.046;11.920;2022-07-29T08:54:00;2.40;;;2.20;;
60494;SDS011;46342;49.046;11.920;2022-07-29T08:56:27;2.50;;;2.30;;
60494;SDS011;46342;49.046;11.920;2022-07-29T08:58:53;2.45;;;2.15;;
60494;SDS011;46342;49.046;11.920;2022-07-29T09:01:24;2.40;;;2.20;;
60494;SDS011;46342;49.046;11.920;2022-07-29T09:03:54;2.40;;;2.20;;
60494;SDS011;46342;49.046;11.920;2022-07-29T09:06:21;3.60;;;2.45;;
60494;SDS011;46342;49.046;11.920;2022-07-29T09:08:50;2.42;;;1.92;;
60494;SDS011;46342;49.046;11.920;2022-07-29T09:11:16;2.15;;;1.98;;
60494;SDS011;46342;49.046;11.920;2022-07-29T09:13:42;3.80;;;2.05;;
60494;SDS011;46342;49.046;11.920;2022-07-29T09:16:11;2.20;;;2.00;;
60494;SDS011;46342;49.046;11.920;2022-07-29T09:18:37;3.20;;;2.10;;
60494;SDS011;46342;49.046;11.920;2022-07-29T09:21:11;2.42;;;2.15;;
60494;SDS011;46342;49.046;11.920;2022-07-29T09:26:36;4.10;;;2.10;;
60494;SDS011;46342;49.046;11.920;2022-07-29T09:29:25;2.10;;;1.90;;
60494;SDS011;46342;49.046;11.920;2022-07-29T09:31:52;3.30;;;2.10;;
60494;SDS011;46342;49.046;11.920;2022-07-29T09:34:23;2.28;;;2.08;;
60494;SDS011;46342;49.046;11.920;2022-07-29T09:36:50;2.20;;;2.00;;
60494;SDS011;46342;49.046;11.920;2022-07-29T09:39:37;1.98;;;1.77;;
60494;SDS011;46342;49.046;11.920;2022-07-29T09:42:10;3.30;;;1.70;;
60494;SDS011;46342;49.046;11.920;2022-07-29T09:44:41;3.28;;;2.00;;
60494;SDS011;46342;49.046;11.920;2022-07-29T09:47:07;1.90;;;1.70;;
60494;SDS011;46342;49.046;11.920;2022-07-29T09:49:34;2.17;;;2.08;;
60494;SDS011;46342;49.046;11.920;2022-07-29T09:52:03;1.80;;;1.70;;
60494;SDS011;46342;49.046;11.920;2022-07-29T09:54:33;2.88;;;2.00;;
60494;SDS011;46342;49.046;11.920;2022-07-29T09:57:03;3.60;;;2.15;;
60494;SDS011;46342;49.046;11.920;2022-07-29T09:59:30;2.25;;;1.92;;
60494;SDS011;46342;49.046;11.920;2022-07-29T10:01:56;2.90;;;2.10;;
60494;SDS011;46342;49.046;11.920;2022-07-29T10:04:22;8.70;;;2.10;;
60494;SDS011;46342;49.046;11.920;2022-07-29T10:07:00;3.05;;;2.10;;
60494;SDS011;46342;49.046;11.920;2022-07-29T10:09:27;1.98;;;1.67;;
60494;SDS011;46342;49.046;11.920;2022-07-29T10:14:48;2.10;;;1.90;;
60494;SDS011;46342;49.046;11.920;2022-07-29T10:17:14;2.00;;;1.80;;
60494;SDS011;46342;49.046;11.920;2022-07-29T10:19:41;2.40;;;2.13;;
60494;SDS011;46342;49.046;11.920;2022-07-29T10:22:08;2.58;;;2.00;;
60494;SDS011;46342;49.046;11.920;2022-07-29T10:24:34;3.15;;;2.30;;
60494;SDS011;46342;49.046;11.920;2022-07-29T10:27:02;3.58;;;1.80;;
60494;SDS011;46342;49.046;11.920;2022-07-29T10:29:32;2.63;;;2.00;;
60494;SDS011;46342;49.046;11.920;2022-07-29T10:43:27;3.60;;;2.60;;
60494;SDS011;46342;49.046;11.920;2022-07-29T10:45:58;5.00;;;2.20;;
60494;SDS011;46342;49.046;11.920;2022-07-29T10:48:25;2.20;;;1.85;;
60494;SDS011;46342;49.046;11.920;2022-07-29T10:50:51;2.40;;;2.20;;
60494;SDS011;46342;49.046;11.920;2022-07-29T10:53:25;2.40;;;1.80;;
60494;SDS011;46342;49.046;11.920;2022-07-29T10:56:28;2.28;;;1.88;;
60494;SDS011;46342;49.046;11.920;2022-07-29T11:01:42;1.70;;;1.60;;
60494;SDS011;46342;49.046;11.920;2022-07-29T11:04:08;2.63;;;1.60;;
60494;SDS011;46342;49.046;11.920;2022-07-29T11:07:20;2.63;;;1.60;;
60494;SDS011;46342;49.046;11.920;2022-07-29T11:09:29;2.15;;;1.88;;
60494;SDS011;46342;49.046;11.920;2022-07-29T11:11:55;1.33;;;1.23;;
60494;SDS011;46342;49.046;11.920;2022-07-29T11:17:23;1.13;;;1.10;;
60494;SDS011;46342;49.046;11.920;2022-07-29T11:19:49;1.23;;;1.15;;
60494;SDS011;46342;49.046;11.920;2022-07-29T11:22:31;1.63;;;1.50;;
60494;SDS011;46342;49.046;11.920;2022-07-29T11:25:16;1.15;;;1.13;;
60494;SDS011;46342;49.046;11.920;2022-07-29T11:27:44;1.30;;;1.20;;
60494;SDS011;46342;49.046;11.920;2022-07-29T11:32:40;1.30;;;1.20;;
60494;SDS011;46342;49.046;11.920;2022-07-29T11:37:37;2.03;;;1.13;;
60494;SDS011;46342;49.046;11.920;2022-07-29T11:47:23;1.20;;;1.10;;
60494;SDS011;46342;49.046;11.920;2022-07-29T11:49:53;1.30;;;1.20;;
